sensor_id;sensor_type;location;lat;lon;timestamp;P1;durP1;ratioP1;P2;durP2;ratioP2
21326;SDS011;10822;51.532;6.770;2024-03-02T00:00:15;2.55;;;1.35;;
21326;SDS011;10822;51.532;6.770;2024-03-02T00:02:44;1.90;;;1.00;;
21326;SDS011;10822;51.532;6.770;2024-03-02T00:05:11;2.58;;;1.20;;
21326;SDS011;10822;51.532;6.770;2024-03-02T00:07:37;1.88;;;1.10;;
21326;SDS011;10822;51.532;6.770;2024-03-02T00:10:07;2.25;;;1.15;;
21326;SDS011;10822;51.532;6.770;2024-03-02T00:12:35;2.65;;;1.15;;
21326;SDS011;10822;51.532;6.770;2024-03-02T00:15:01;1.10;;;0.90;;
21326;SDS011;10822;51.532;6.770;2024-03-02T00:17:27;3.45;;;1.30;;
21326;SDS011;10822;51.532;6.770;2024-03-02T00:19:54;3.03;;;1.20;;
21326;SDS011;10822;51.532;6.770;2024-03-02T00:22:20;1.70;;;1.02;;
21326;SDS011;10822;51.532;6.770;2024-03-02T00:24:47;0.88;;;0.88;;
21326;SDS011;10822;51.532;6.770;2024-03-02T00:27:14;2.00;;;1.48;;
21326;SDS011;10822;51.532;6.770;2024-03-02T00:29:40;1.55;;;0.90;;
21326;SDS011;10822;51.532;6.770;2024-03-02T00:32:13;2.13;;;1.00;;
21326;SDS011;10822;51.532;6.770;2024-03-02T00:34:41;2.35;;;1.30;;
21326;SDS011;10822;51.532;6.770;2024-03-02T00:37:07;1.70;;;0.98;;
21326;SDS011;10822;51.532;6.770;2024-03-02T00:39:33;2.50;;;0.93;;
21326;SDS011;10822;51.532;6.770;2024-03-02T00:41:59;2.35;;;0.90;;
21326;SDS011;10822;51.532;6.770;2024-03-02T00:44:25;1.75;;;1.23;;
21326;SDS011;10822;51.532;6.770;2024-03-02T00:46:51;2.20;;;1.05;;
21326;SDS011;10822;51.532;6.770;2024-03-02T00:51:48;1.63;;;1.00;;
21326;SDS011;10822;51.532;6.770;2024-03-02T00:54:14;2.10;;;1.10;;
21326;SDS011;10822;51.532;6.770;2024-03-02T00:56:43;5.18;;;1.08;;
21326;SDS011;10822;51.532;6.770;2024-03-02T00:59:10;2.50;;;0.77;;
21326;SDS011;10822;51.532;6.770;2024-03-02T01:01:36;2.30;;;1.00;;
21326;SDS011;10822;51.532;6.770;2024-03-02T01:04:03;1.58;;;1.00;;
21326;SDS011;10822;51.532;6.770;2024-03-02T01:06:30;2.80;;;1.25;;
21326;SDS011;10822;51.532;6.770;2024-03-02T01:08:56;2.85;;;1.30;;
21326;SDS011;10822;51.532;6.770;2024-03-02T01:11:22;2.33;;;0.90;;
21326;SDS011;10822;51.532;6.770;2024-03-02T01:13:48;2.70;;;1.00;;
21326;SDS011;10822;51.532;6.770;2024-03-02T01:16:14;2.75;;;1.17;;
21326;SDS011;10822;51.532;6.770;2024-03-02T01:18:40;1.85;;;1.10;;
21326;SDS011;10822;51.532;6.770;2024-03-02T01:21:06;3.05;;;1.00;;
21326;SDS011;10822;51.532;6.770;2024-03-02T01:23:32;3.80;;;1.13;;
21326;SDS011;10822;51.532;6.770;2024-03-02T01:25:58;2.78;;;1.10;;
21326;SDS011;10822;51.532;6.770;2024-03-02T01:28:24;1.73;;;1.15;;
21326;SDS011;10822;51.532;6.770;2024-03-02T01:30:50;2.10;;;0.93;;
21326;SDS011;10822;51.532;6.770;2024-03-02T01:33:17;1.05;;;0.75;;
21326;SDS011;10822;51.532;6.770;2024-03-02T01:35:43;3.88;;;0.95;;
21326;SDS011;10822;51.532;6.770;2024-03-02T01:38:09;2.53;;;1.08;;
21326;SDS011;10822;51.532;6.770;2024-03-02T01:40:35;1.13;;;0.70;;
21326;SDS011;10822;51.532;6.770;2024-03-02T01:43:01;1.65;;;1.25;;
21326;SDS011;10822;51.532;6.770;2024-03-02T01:45:27;2.22;;;1.00;;
21326;SDS011;10822;51.532;6.770;2024-03-02T01:47:53;2.33;;;0.90;;
21326;SDS011;10822;51.532;6.770;2024-03-02T01:50:29;2.22;;;1.10;;
21326;SDS011;10822;51.532;6.770;2024-03-02T01:52:55;4.18;;;1.20;;
21326;SDS011;10822;51.532;6.770;2024-03-02T01:55:21;1.52;;;0.90;;
21326;SDS011;10822;51.532;6.770;2024-03-02T01:57:48;1.52;;;0.90;;
21326;SDS011;10822;51.532;6.770;2024-03-02T02:00:15;2.30;;;0.98;;
21326;SDS011;10822;51.532;6.770;2024-03-02T02:02:41;1.63;;;0.90;;
21326;SDS011;10822;51.532;6.770;2024-03-02T02:05:07;1.30;;;0.90;;
21326;SDS011;10822;51.532;6.770;2024-03-02T02:07:34;2.15;;;0.90;;
21326;SDS011;10822;51.532;6.770;2024-03-02T02:10:00;2.35;;;1.15;;
21326;SDS011;10822;51.532;6.770;2024-03-02T02:12:27;1.67;;;1.00;;
21326;SDS011;10822;51.532;6.770;2024-03-02T02:14:53;2.65;;;1.10;;
21326;SDS011;10822;51.532;6.770;2024-03-02T02:17:19;2.97;;;0.90;;
21326;SDS011;10822;51.532;6.770;2024-03-02T02:19:45;2.00;;;1.00;;
21326;SDS011;10822;51.532;6.770;2024-03-02T02:22:11;1.77;;;1.02;;
21326;SDS011;10822;51.532;6.770;2024-03-02T02:24:43;5.28;;;1.23;;
21326;SDS011;10822;51.532;6.770;2024-03-02T02:27:09;1.77;;;1.10;;
21326;SDS011;10822;51.532;6.770;2024-03-02T02:29:35;1.70;;;0.90;;
21326;SDS011;10822;51.532;6.770;2024-03-02T02:32:01;1.52;;;0.93;;
21326;SDS011;10822;51.532;6.770;2024-03-02T02:34:28;1.30;;;1.00;;
21326;SDS011;10822;51.532;6.770;2024-03-02T02:36:54;1.10;;;0.77;;
21326;SDS011;10822;51.532;6.770;2024-03-02T02:39:21;2.30;;;1.20;;
21326;SDS011;10822;51.532;6.770;2024-03-02T02:41:50;1.40;;;0.85;;
21326;SDS011;10822;51.532;6.770;2024-03-02T02:44:16;2.80;;;0.90;;
21326;SDS011;10822;51.532;6.770;2024-03-02T02:46:42;1.80;;;0.95;;
21326;SDS011;10822;51.532;6.770;2024-03-02T02:49:08;1.65;;;0.80;;
21326;SDS011;10822;51.532;6.770;2024-03-02T02:51:34;2.08;;;0.88;;
21326;SDS011;10822;51.532;6.770;2024-03-02T02:54:00;1.27;;;0.90;;
21326;SDS011;10822;51.532;6.770;2024-03-02T02:56:26;1.38;;;0.98;;
21326;SDS011;10822;51.532;6.770;2024-03-02T02:58:52;1.38;;;1.00;;
21326;SDS011;10822;51.532;6.770;2024-03-02T03:01:18;3.67;;;1.10;;
21326;SDS011;10822;51.532;6.770;2024-03-02T03:03:44;2.08;;;1.10;;
21326;SDS011;10822;51.532;6.770;2024-03-02T03:06:10;2.83;;;1.15;;
21326;SDS011;10822;51.532;6.770;2024-03-02T03:08:37;1.50;;;0.85;;
21326;SDS011;10822;51.532;6.770;2024-03-02T03:11:03;1.20;;;0.82;;
21326;SDS011;10822;51.532;6.770;2024-03-02T03:13:29;3.67;;;0.90;;
21326;SDS011;10822;51.532;6.770;2024-03-02T03:15:55;3.00;;;1.02;;
21326;SDS011;10822;51.532;6.770;2024-03-02T03:18:21;1.70;;;0.98;;
21326;SDS011;10822;51.532;6.770;2024-03-02T03:20:47;1.33;;;0.90;;
21326;SDS011;10822;51.532;6.770;2024-03-02T03:23:13;1.58;;;0.73;;
21326;SDS011;10822;51.532;6.770;2024-03-02T03:25:41;2.97;;;1.08;;
21326;SDS011;10822;51.532;6.770;2024-03-02T03:28:07;1.63;;;1.00;;
21326;SDS011;10822;51.532;6.770;2024-03-02T03:30:37;2.47;;;1.23;;
21326;SDS011;10822;51.532;6.770;2024-03-02T03:33:03;2.50;;;1.25;;
21326;SDS011;10822;51.532;6.770;2024-03-02T03:35:31;2.35;;;1.33;;
21326;SDS011;10822;51.532;6.770;2024-03-02T03:37:57;2.55;;;1.40;;
21326;SDS011;10822;51.532;6.770;2024-03-02T03:40:23;2.53;;;1.35;;
21326;SDS011;10822;51.532;6.770;2024-03-02T03:42:49;4.28;;;1.40;;
21326;SDS011;10822;51.532;6.770;2024-03-02T03:45:15;2.25;;;1.50;;
21326;SDS011;10822;51.532;6.770;2024-03-02T03:47:41;2.38;;;1.45;;
21326;SDS011;10822;51.532;6.770;2024-03-02T03:50:08;4.55;;;1.80;;
21326;SDS011;10822;51.532;6.770;2024-03-02T03:52:34;3.45;;;1.70;;
21326;SDS011;10822;51.532;6.770;2024-03-02T03:55:00;3.42;;;1.98;;
21326;SDS011;10822;51.532;6.770;2024-03-02T03:57:26;2.92;;;1.80;;
21326;SDS011;10822;51.532;6.770;2024-03-02T03:59:52;3.70;;;1.83;;
21326;SDS011;10822;51.532;6.770;2024-03-02T04:02:18;2.45;;;1.70;;
21326;SDS011;10822;51.532;6.770;2024-03-02T04:04:44;4.05;;;1.80;;
21326;SDS011;10822;51.532;6.770;2024-03-02T04:07:11;2.95;;;1.40;;
21326;SDS011;10822;51.532;6.770;2024-03-02T04:09:37;3.17;;;1.70;;
21326;SDS011;10822;51.532;6.770;2024-03-02T04:12:03;3.42;;;1.70;;
21326;SDS011;10822;51.532;6.770;2024-03-02T04:14:29;2.83;;;1.30;;
21326;SDS011;10822;51.532;6.770;2024-03-02T04:16:55;2.72;;;1.50;;
21326;SDS011;10822;51.532;6.770;2024-03-02T04:19:21;2.28;;;1.48;;
21326;SDS011;10822;51.532;6.770;2024-03-02T04:21:47;3.35;;;1.42;;
21326;SDS011;10822;51.532;6.770;2024-03-02T04:24:12;4.65;;;1.48;;
21326;SDS011;10822;51.532;6.770;2024-03-02T04:26:38;2.80;;;1.50;;
21326;SDS011;10822;51.532;6.770;2024-03-02T04:29:04;4.03;;;1.70;;
21326;SDS011;10822;51.532;6.770;2024-03-02T04:31:30;4.55;;;1.83;;
21326;SDS011;10822;51.532;6.770;2024-03-02T04:33:56;4.47;;;1.88;;
21326;SDS011;10822;51.532;6.770;2024-03-02T04:36:22;3.85;;;1.65;;
21326;SDS011;10822;51.532;6.770;2024-03-02T04:38:48;4.18;;;2.08;;
21326;SDS011;10822;51.532;6.770;2024-03-02T04:41:14;5.78;;;2.03;;
21326;SDS011;10822;51.532;6.770;2024-03-02T04:43:40;5.70;;;2.65;;
21326;SDS011;10822;51.532;6.770;2024-03-02T04:46:06;7.10;;;2.92;;
21326;SDS011;10822;51.532;6.770;2024-03-02T04:48:32;4.07;;;2.53;;
21326;SDS011;10822;51.532;6.770;2024-03-02T04:50:59;6.03;;;2.30;;
21326;SDS011;10822;51.532;6.770;2024-03-02T04:53:25;4.72;;;1.90;;
21326;SDS011;10822;51.532;6.770;2024-03-02T04:55:51;4.28;;;1.60;;
21326;SDS011;10822;51.532;6.770;2024-03-02T04:58:55;3.63;;;1.63;;
21326;SDS011;10822;51.532;6.770;2024-03-02T05:01:21;4.32;;;1.60;;
21326;SDS011;10822;51.532;6.770;2024-03-02T05:03:47;5.18;;;1.63;;
21326;SDS011;10822;51.532;6.770;2024-03-02T05:06:13;3.78;;;1.52;;
21326;SDS011;10822;51.532;6.770;2024-03-02T05:08:39;4.53;;;1.55;;
21326;SDS011;10822;51.532;6.770;2024-03-02T05:11:05;2.60;;;1.40;;
21326;SDS011;10822;51.532;6.770;2024-03-02T05:14:00;3.03;;;1.67;;
21326;SDS011;10822;51.532;6.770;2024-03-02T05:16:26;2.22;;;1.48;;
21326;SDS011;10822;51.532;6.770;2024-03-02T05:18:52;1.88;;;1.23;;
21326;SDS011;10822;51.532;6.770;2024-03-02T05:21:18;2.17;;;1.35;;
21326;SDS011;10822;51.532;6.770;2024-03-02T05:23:44;2.83;;;1.60;;
21326;SDS011;10822;51.532;6.770;2024-03-02T05:26:10;2.30;;;1.38;;
21326;SDS011;10822;51.532;6.770;2024-03-02T05:28:39;2.35;;;1.20;;
21326;SDS011;10822;51.532;6.770;2024-03-02T05:31:05;2.13;;;1.25;;
21326;SDS011;10822;51.532;6.770;2024-03-02T05:33:31;2.03;;;1.20;;
21326;SDS011;10822;51.532;6.770;2024-03-02T05:35:58;3.60;;;1.70;;
21326;SDS011;10822;51.532;6.770;2024-03-02T05:38:24;4.95;;;1.40;;
21326;SDS011;10822;51.532;6.770;2024-03-02T05:40:50;2.92;;;1.30;;
21326;SDS011;10822;51.532;6.770;2024-03-02T05:43:16;2.53;;;1.55;;
21326;SDS011;10822;51.532;6.770;2024-03-02T05:45:43;1.98;;;1.38;;
21326;SDS011;10822;51.532;6.770;2024-03-02T05:48:09;2.10;;;1.10;;
21326;SDS011;10822;51.532;6.770;2024-03-02T05:50:35;2.50;;;1.40;;
21326;SDS011;10822;51.532;6.770;2024-03-02T05:53:01;3.03;;;1.50;;
21326;SDS011;10822;51.532;6.770;2024-03-02T05:55:27;6.60;;;1.30;;
21326;SDS011;10822;51.532;6.770;2024-03-02T05:57:53;2.55;;;1.35;;
21326;SDS011;10822;51.532;6.770;2024-03-02T06:00:30;3.50;;;1.25;;
21326;SDS011;10822;51.532;6.770;2024-03-02T06:02:56;3.75;;;1.38;;
21326;SDS011;10822;51.532;6.770;2024-03-02T06:05:23;5.15;;;1.30;;
21326;SDS011;10822;51.532;6.770;2024-03-02T06:07:49;3.08;;;1.40;;
21326;SDS011;10822;51.532;6.770;2024-03-02T06:10:15;2.10;;;1.10;;
21326;SDS011;10822;51.532;6.770;2024-03-02T06:12:41;1.92;;;1.08;;
21326;SDS011;10822;51.532;6.770;2024-03-02T06:15:07;2.33;;;1.13;;
21326;SDS011;10822;51.532;6.770;2024-03-02T06:17:34;3.00;;;1.20;;
21326;SDS011;10822;51.532;6.770;2024-03-02T06:20:01;4.25;;;1.23;;
21326;SDS011;10822;51.532;6.770;2024-03-02T06:22:27;5.07;;;1.13;;
21326;SDS011;10822;51.532;6.770;2024-03-02T06:24:53;3.33;;;1.85;;
21326;SDS011;10822;51.532;6.770;2024-03-02T06:27:19;5.15;;;2.17;;
21326;SDS011;10822;51.532;6.770;2024-03-02T06:29:44;3.60;;;1.13;;
21326;SDS011;10822;51.532;6.770;2024-03-02T06:32:11;2.42;;;1.20;;
21326;SDS011;10822;51.532;6.770;2024-03-02T06:34:37;2.88;;;1.40;;
21326;SDS011;10822;51.532;6.770;2024-03-02T06:37:03;2.58;;;1.40;;
21326;SDS011;10822;51.532;6.770;2024-03-02T06:39:29;3.30;;;1.38;;
21326;SDS011;10822;51.532;6.770;2024-03-02T06:41:56;2.25;;;1.20;;
21326;SDS011;10822;51.532;6.770;2024-03-02T06:44:22;3.53;;;1.40;;
21326;SDS011;10822;51.532;6.770;2024-03-02T06:46:48;2.60;;;1.33;;
21326;SDS011;10822;51.532;6.770;2024-03-02T06:49:13;2.28;;;1.30;;
21326;SDS011;10822;51.532;6.770;2024-03-02T06:51:39;3.80;;;1.55;;
21326;SDS011;10822;51.532;6.770;2024-03-02T06:54:07;3.22;;;1.40;;
21326;SDS011;10822;51.532;6.770;2024-03-02T06:56:33;2.10;;;1.48;;
21326;SDS011;10822;51.532;6.770;2024-03-02T06:58:59;2.65;;;1.45;;
21326;SDS011;10822;51.532;6.770;2024-03-02T07:01:25;3.13;;;1.40;;
21326;SDS011;10822;51.532;6.770;2024-03-02T07:03:51;2.33;;;1.35;;
21326;SDS011;10822;51.532;6.770;2024-03-02T07:06:17;3.03;;;1.10;;
21326;SDS011;10822;51.532;6.770;2024-03-02T07:08:43;4.03;;;1.50;;
21326;SDS011;10822;51.532;6.770;2024-03-02T07:11:09;2.35;;;1.50;;
21326;SDS011;10822;51.532;6.770;2024-03-02T07:13:35;2.38;;;1.30;;
21326;SDS011;10822;51.532;6.770;2024-03-02T07:16:01;3.83;;;1.52;;
21326;SDS011;10822;51.532;6.770;2024-03-02T07:18:36;2.58;;;1.40;;
21326;SDS011;10822;51.532;6.770;2024-03-02T07:21:06;2.25;;;1.30;;
21326;SDS011;10822;51.532;6.770;2024-03-02T07:23:32;1.95;;;1.58;;
21326;SDS011;10822;51.532;6.770;2024-03-02T07:25:58;2.50;;;1.55;;
21326;SDS011;10822;51.532;6.770;2024-03-02T07:28:26;3.67;;;1.70;;
21326;SDS011;10822;51.532;6.770;2024-03-02T07:31:02;1.73;;;1.30;;
21326;SDS011;10822;51.532;6.770;2024-03-02T07:33:29;2.55;;;1.33;;
21326;SDS011;10822;51.532;6.770;2024-03-02T07:35:55;3.35;;;1.55;;
21326;SDS011;10822;51.532;6.770;2024-03-02T07:38:22;4.00;;;1.42;;
21326;SDS011;10822;51.532;6.770;2024-03-02T07:40:48;3.03;;;1.27;;
21326;SDS011;10822;51.532;6.770;2024-03-02T07:43:21;5.18;;;1.65;;
21326;SDS011;10822;51.532;6.770;2024-03-02T07:45:47;3.33;;;1.60;;
21326;SDS011;10822;51.532;6.770;2024-03-02T07:48:13;2.42;;;1.40;;
21326;SDS011;10822;51.532;6.770;2024-03-02T07:50:39;2.70;;;1.48;;
21326;SDS011;10822;51.532;6.770;2024-03-02T07:53:06;1.77;;;1.30;;
21326;SDS011;10822;51.532;6.770;2024-03-02T07:55:33;3.47;;;1.60;;
21326;SDS011;10822;51.532;6.770;2024-03-02T07:58:00;2.40;;;1.27;;
21326;SDS011;10822;51.532;6.770;2024-03-02T08:00:26;3.78;;;1.65;;
21326;SDS011;10822;51.532;6.770;2024-03-02T08:02:53;1.67;;;1.55;;
21326;SDS011;10822;51.532;6.770;2024-03-02T08:05:19;2.60;;;1.67;;
21326;SDS011;10822;51.532;6.770;2024-03-02T08:07:45;1.90;;;1.30;;
21326;SDS011;10822;51.532;6.770;2024-03-02T08:10:12;3.15;;;1.40;;
21326;SDS011;10822;51.532;6.770;2024-03-02T08:12:38;2.97;;;1.50;;
21326;SDS011;10822;51.532;6.770;2024-03-02T08:15:04;3.00;;;1.35;;
21326;SDS011;10822;51.532;6.770;2024-03-02T08:17:30;2.80;;;1.38;;
21326;SDS011;10822;51.532;6.770;2024-03-02T08:19:56;1.98;;;1.30;;
21326;SDS011;10822;51.532;6.770;2024-03-02T08:22:22;3.30;;;1.20;;
21326;SDS011;10822;51.532;6.770;2024-03-02T08:24:50;2.25;;;1.33;;
21326;SDS011;10822;51.532;6.770;2024-03-02T08:27:16;3.22;;;1.42;;
21326;SDS011;10822;51.532;6.770;2024-03-02T08:29:42;2.72;;;1.55;;
21326;SDS011;10822;51.532;6.770;2024-03-02T08:32:08;2.72;;;1.70;;
21326;SDS011;10822;51.532;6.770;2024-03-02T08:34:34;2.78;;;1.73;;
21326;SDS011;10822;51.532;6.770;2024-03-02T08:37:00;2.92;;;1.50;;
21326;SDS011;10822;51.532;6.770;2024-03-02T08:39:26;4.00;;;1.60;;
21326;SDS011;10822;51.532;6.770;2024-03-02T08:41:53;3.05;;;1.40;;
21326;SDS011;10822;51.532;6.770;2024-03-02T08:44:19;2.55;;;1.60;;
21326;SDS011;10822;51.532;6.770;2024-03-02T08:46:45;2.72;;;1.40;;
21326;SDS011;10822;51.532;6.770;2024-03-02T08:49:11;3.70;;;1.85;;
21326;SDS011;10822;51.532;6.770;2024-03-02T08:51:37;3.47;;;1.70;;
21326;SDS011;10822;51.532;6.770;2024-03-02T08:54:03;3.00;;;1.48;;
21326;SDS011;10822;51.532;6.770;2024-03-02T08:56:29;2.47;;;1.50;;
21326;SDS011;10822;51.532;6.770;2024-03-02T08:58:56;3.30;;;1.80;;
21326;SDS011;10822;51.532;6.770;2024-03-02T09:01:22;3.13;;;1.80;;
21326;SDS011;10822;51.532;6.770;2024-03-02T09:03:48;2.88;;;1.67;;
21326;SDS011;10822;51.532;6.770;2024-03-02T09:06:14;3.00;;;1.83;;
21326;SDS011;10822;51.532;6.770;2024-03-02T09:08:44;1.95;;;1.50;;
21326;SDS011;10822;51.532;6.770;2024-03-02T09:11:10;2.72;;;1.38;;
21326;SDS011;10822;51.532;6.770;2024-03-02T09:13:37;4.63;;;1.83;;
21326;SDS011;10822;51.532;6.770;2024-03-02T09:16:03;3.25;;;1.85;;
21326;SDS011;10822;51.532;6.770;2024-03-02T09:18:30;2.97;;;1.80;;
21326;SDS011;10822;51.532;6.770;2024-03-02T09:20:56;7.10;;;1.42;;
21326;SDS011;10822;51.532;6.770;2024-03-02T09:23:22;3.25;;;1.35;;
21326;SDS011;10822;51.532;6.770;2024-03-02T09:25:48;2.10;;;1.20;;
21326;SDS011;10822;51.532;6.770;2024-03-02T09:28:17;2.47;;;1.40;;
21326;SDS011;10822;51.532;6.770;2024-03-02T09:30:43;1.90;;;1.40;;
21326;SDS011;10822;51.532;6.770;2024-03-02T09:33:09;2.65;;;1.15;;
21326;SDS011;10822;51.532;6.770;2024-03-02T09:35:35;2.65;;;1.38;;
21326;SDS011;10822;51.532;6.770;2024-03-02T09:38:01;2.42;;;1.60;;
21326;SDS011;10822;51.532;6.770;2024-03-02T09:40:28;2.42;;;1.20;;
21326;SDS011;10822;51.532;6.770;2024-03-02T09:42:54;2.42;;;1.25;;
21326;SDS011;10822;51.532;6.770;2024-03-02T09:45:22;3.35;;;1.38;;
21326;SDS011;10822;51.532;6.770;2024-03-02T09:47:48;1.88;;;1.25;;
21326;SDS011;10822;51.532;6.770;2024-03-02T09:50:14;2.22;;;1.20;;
21326;SDS011;10822;51.532;6.770;2024-03-02T09:52:42;2.58;;;1.40;;
21326;SDS011;10822;51.532;6.770;2024-03-02T09:55:08;5.65;;;1.40;;
21326;SDS011;10822;51.532;6.770;2024-03-02T09:57:34;2.08;;;1.10;;
21326;SDS011;10822;51.532;6.770;2024-03-02T10:00:00;3.80;;;1.30;;
21326;SDS011;10822;51.532;6.770;2024-03-02T10:02:27;4.53;;;1.30;;
21326;SDS011;10822;51.532;6.770;2024-03-02T10:04:53;2.20;;;1.17;;
21326;SDS011;10822;51.532;6.770;2024-03-02T10:07:19;2.72;;;1.48;;
21326;SDS011;10822;51.532;6.770;2024-03-02T10:09:45;2.63;;;1.33;;
21326;SDS011;10822;51.532;6.770;2024-03-02T10:12:13;3.53;;;1.00;;
21326;SDS011;10822;51.532;6.770;2024-03-02T10:17:44;1.42;;;0.80;;
21326;SDS011;10822;51.532;6.770;2024-03-02T10:20:22;2.35;;;0.90;;
21326;SDS011;10822;51.532;6.770;2024-03-02T10:22:49;2.47;;;0.98;;
21326;SDS011;10822;51.532;6.770;2024-03-02T10:25:33;2.13;;;0.82;;
21326;SDS011;10822;51.532;6.770;2024-03-02T10:27:59;1.67;;;1.00;;
21326;SDS011;10822;51.532;6.770;2024-03-02T10:30:26;1.38;;;0.77;;
21326;SDS011;10822;51.532;6.770;2024-03-02T10:32:55;1.92;;;0.90;;
21326;SDS011;10822;51.532;6.770;2024-03-02T10:35:24;2.60;;;1.00;;
21326;SDS011;10822;51.532;6.770;2024-03-02T10:37:51;1.10;;;0.90;;
21326;SDS011;10822;51.532;6.770;2024-03-02T10:40:17;1.23;;;0.85;;
21326;SDS011;10822;51.532;6.770;2024-03-02T10:42:43;3.65;;;1.08;;
21326;SDS011;10822;51.532;6.770;2024-03-02T10:45:10;1.58;;;0.75;;
21326;SDS011;10822;51.532;6.770;2024-03-02T10:47:37;1.63;;;1.17;;
21326;SDS011;10822;51.532;6.770;2024-03-02T10:50:04;3.55;;;1.17;;
21326;SDS011;10822;51.532;6.770;2024-03-02T10:52:39;3.38;;;1.13;;
21326;SDS011;10822;51.532;6.770;2024-03-02T10:55:06;2.80;;;1.08;;
21326;SDS011;10822;51.532;6.770;2024-03-02T10:58:07;3.67;;;1.00;;
21326;SDS011;10822;51.532;6.770;2024-03-02T11:00:29;2.38;;;1.33;;
21326;SDS011;10822;51.532;6.770;2024-03-02T11:03:05;2.08;;;1.17;;
21326;SDS011;10822;51.532;6.770;2024-03-02T11:05:32;2.25;;;0.93;;
21326;SDS011;10822;51.532;6.770;2024-03-02T11:08:01;2.10;;;1.13;;
21326;SDS011;10822;51.532;6.770;2024-03-02T11:10:33;2.83;;;1.13;;
21326;SDS011;10822;51.532;6.770;2024-03-02T11:13:00;2.17;;;1.13;;
21326;SDS011;10822;51.532;6.770;2024-03-02T11:15:27;1.88;;;0.90;;
21326;SDS011;10822;51.532;6.770;2024-03-02T11:17:53;2.40;;;1.05;;
21326;SDS011;10822;51.532;6.770;2024-03-02T11:20:20;1.25;;;0.90;;
21326;SDS011;10822;51.532;6.770;2024-03-02T11:22:47;1.75;;;0.93;;
21326;SDS011;10822;51.532;6.770;2024-03-02T11:25:22;1.83;;;0.80;;
21326;SDS011;10822;51.532;6.770;2024-03-02T11:32:59;2.03;;;0.82;;
21326;SDS011;10822;51.532;6.770;2024-03-02T11:35:26;1.85;;;0.88;;
21326;SDS011;10822;51.532;6.770;2024-03-02T11:37:53;2.63;;;1.00;;
21326;SDS011;10822;51.532;6.770;2024-03-02T11:40:23;2.80;;;0.90;;
21326;SDS011;10822;51.532;6.770;2024-03-02T11:42:50;1.52;;;0.70;;
21326;SDS011;10822;51.532;6.770;2024-03-02T11:45:16;3.50;;;0.73;;
21326;SDS011;10822;51.532;6.770;2024-03-02T11:47:46;2.45;;;0.82;;
21326;SDS011;10822;51.532;6.770;2024-03-02T11:50:15;1.80;;;0.88;;
21326;SDS011;10822;51.532;6.770;2024-03-02T11:52:41;4.88;;;1.00;;
21326;SDS011;10822;51.532;6.770;2024-03-02T11:55:08;3.40;;;1.10;;
21326;SDS011;10822;51.532;6.770;2024-03-02T11:57:34;2.85;;;1.10;;
21326;SDS011;10822;51.532;6.770;2024-03-02T12:00:00;2.03;;;0.90;;
21326;SDS011;10822;51.532;6.770;2024-03-02T12:02:41;2.65;;;0.98;;
21326;SDS011;10822;51.532;6.770;2024-03-02T12:05:10;1.38;;;0.90;;
21326;SDS011;10822;51.532;6.770;2024-03-02T12:07:36;2.55;;;1.10;;
21326;SDS011;10822;51.532;6.770;2024-03-02T12:10:02;1.55;;;0.95;;
21326;SDS011;10822;51.532;6.770;2024-03-02T12:12:28;1.27;;;0.82;;
21326;SDS011;10822;51.532;6.770;2024-03-02T12:14:54;3.97;;;1.38;;
21326;SDS011;10822;51.532;6.770;2024-03-02T12:17:21;3.63;;;1.00;;
21326;SDS011;10822;51.532;6.770;2024-03-02T12:19:47;2.97;;;0.85;;
21326;SDS011;10822;51.532;6.770;2024-03-02T12:22:13;1.52;;;0.90;;
21326;SDS011;10822;51.532;6.770;2024-03-02T12:24:41;4.85;;;0.80;;
21326;SDS011;10822;51.532;6.770;2024-03-02T12:27:10;1.40;;;0.80;;
21326;SDS011;10822;51.532;6.770;2024-03-02T12:29:36;2.90;;;0.88;;
21326;SDS011;10822;51.532;6.770;2024-03-02T12:32:02;2.22;;;0.70;;
21326;SDS011;10822;51.532;6.770;2024-03-02T12:34:28;2.75;;;0.95;;
21326;SDS011;10822;51.532;6.770;2024-03-02T12:36:54;2.03;;;0.80;;
21326;SDS011;10822;51.532;6.770;2024-03-02T12:39:20;1.50;;;0.80;;
21326;SDS011;10822;51.532;6.770;2024-03-02T12:41:48;2.97;;;1.10;;
21326;SDS011;10822;51.532;6.770;2024-03-02T12:44:15;2.63;;;1.00;;
21326;SDS011;10822;51.532;6.770;2024-03-02T12:46:41;3.25;;;1.00;;
21326;SDS011;10822;51.532;6.770;2024-03-02T12:49:11;2.72;;;1.13;;
21326;SDS011;10822;51.532;6.770;2024-03-02T12:51:37;3.72;;;1.02;;
21326;SDS011;10822;51.532;6.770;2024-03-02T12:54:05;2.55;;;0.90;;
21326;SDS011;10822;51.532;6.770;2024-03-02T12:56:32;3.03;;;1.02;;
21326;SDS011;10822;51.532;6.770;2024-03-02T12:58:58;1.75;;;0.93;;
21326;SDS011;10822;51.532;6.770;2024-03-02T13:01:24;2.67;;;0.77;;
21326;SDS011;10822;51.532;6.770;2024-03-02T13:03:51;2.08;;;0.82;;
21326;SDS011;10822;51.532;6.770;2024-03-02T13:06:17;3.28;;;1.02;;
21326;SDS011;10822;51.532;6.770;2024-03-02T13:08:43;2.40;;;0.70;;
21326;SDS011;10822;51.532;6.770;2024-03-02T13:11:10;2.70;;;0.90;;
21326;SDS011;10822;51.532;6.770;2024-03-02T13:13:36;2.17;;;0.80;;
21326;SDS011;10822;51.532;6.770;2024-03-02T13:16:03;1.40;;;0.90;;
21326;SDS011;10822;51.532;6.770;2024-03-02T13:18:29;1.85;;;0.90;;
21326;SDS011;10822;51.532;6.770;2024-03-02T13:20:56;2.10;;;0.98;;
21326;SDS011;10822;51.532;6.770;2024-03-02T13:23:22;2.33;;;1.05;;
21326;SDS011;10822;51.532;6.770;2024-03-02T13:25:48;1.83;;;1.15;;
21326;SDS011;10822;51.532;6.770;2024-03-02T13:28:14;1.88;;;1.10;;
21326;SDS011;10822;51.532;6.770;2024-03-02T13:30:40;1.85;;;1.00;;
21326;SDS011;10822;51.532;6.770;2024-03-02T13:33:06;2.22;;;0.80;;
21326;SDS011;10822;51.532;6.770;2024-03-02T13:35:32;2.78;;;0.90;;
21326;SDS011;10822;51.532;6.770;2024-03-02T13:37:58;2.10;;;1.05;;
21326;SDS011;10822;51.532;6.770;2024-03-02T13:40:24;2.20;;;0.82;;
21326;SDS011;10822;51.532;6.770;2024-03-02T13:42:50;1.25;;;0.60;;
21326;SDS011;10822;51.532;6.770;2024-03-02T13:45:18;1.30;;;0.90;;
21326;SDS011;10822;51.532;6.770;2024-03-02T13:47:44;1.98;;;0.80;;
21326;SDS011;10822;51.532;6.770;2024-03-02T13:50:10;1.42;;;0.80;;
21326;SDS011;10822;51.532;6.770;2024-03-02T13:52:36;1.77;;;0.60;;
21326;SDS011;10822;51.532;6.770;2024-03-02T13:55:02;1.67;;;0.85;;
21326;SDS011;10822;51.532;6.770;2024-03-02T13:57:29;2.95;;;0.90;;
21326;SDS011;10822;51.532;6.770;2024-03-02T13:59:55;1.75;;;0.70;;
21326;SDS011;10822;51.532;6.770;2024-03-02T14:02:21;1.10;;;0.80;;
21326;SDS011;10822;51.532;6.770;2024-03-02T14:04:48;0.85;;;0.77;;
21326;SDS011;10822;51.532;6.770;2024-03-02T14:07:15;1.42;;;0.80;;
21326;SDS011;10822;51.532;6.770;2024-03-02T14:09:41;2.40;;;0.70;;
21326;SDS011;10822;51.532;6.770;2024-03-02T14:12:07;1.30;;;0.77;;
21326;SDS011;10822;51.532;6.770;2024-03-02T14:14:33;1.75;;;1.02;;
21326;SDS011;10822;51.532;6.770;2024-03-02T14:16:59;1.08;;;0.90;;
21326;SDS011;10822;51.532;6.770;2024-03-02T14:19:30;1.50;;;0.90;;
21326;SDS011;10822;51.532;6.770;2024-03-02T14:21:56;1.80;;;0.95;;
21326;SDS011;10822;51.532;6.770;2024-03-02T14:24:22;1.75;;;0.70;;
21326;SDS011;10822;51.532;6.770;2024-03-02T14:26:50;1.73;;;1.00;;
21326;SDS011;10822;51.532;6.770;2024-03-02T14:29:16;0.90;;;0.80;;
21326;SDS011;10822;51.532;6.770;2024-03-02T14:31:43;1.75;;;1.02;;
21326;SDS011;10822;51.532;6.770;2024-03-02T14:34:12;0.60;;;0.60;;
21326;SDS011;10822;51.532;6.770;2024-03-02T14:36:38;2.45;;;0.70;;
21326;SDS011;10822;51.532;6.770;2024-03-02T14:39:05;2.45;;;1.40;;
21326;SDS011;10822;51.532;6.770;2024-03-02T14:41:35;0.65;;;0.65;;
21326;SDS011;10822;51.532;6.770;2024-03-02T14:44:01;1.10;;;1.00;;
21326;SDS011;10822;51.532;6.770;2024-03-02T14:46:27;1.00;;;0.82;;
21326;SDS011;10822;51.532;6.770;2024-03-02T14:48:53;1.40;;;0.90;;
21326;SDS011;10822;51.532;6.770;2024-03-02T14:51:19;1.65;;;0.70;;
21326;SDS011;10822;51.532;6.770;2024-03-02T14:53:45;1.17;;;0.68;;
21326;SDS011;10822;51.532;6.770;2024-03-02T14:56:10;2.10;;;1.10;;